Time;durP1;ratioP1;P1;durP2;ratioP2;P2;SDS_P1;SDS_P2;PMS_P1;PMS_P2;Temp;Humidity;BMP_temperature;BMP_pressure;BME280_temperature;BME280_humidity;BME280_pressure;Samples;Min_cycle;Max_cycle;Signal;HPM_P1;HPM_P2
2022/04/22 00:02:19;;;;;;;3.03;2.20;;;;;;;3.93;49.92;99703.47;5079687;28;20059;-79
2022/04/22 00:04:45;;;;;;;8.50;2.60;;;;;;;3.97;49.68;99708.53;5080126;28;20084;-80
2022/04/22 00:07:12;;;;;;;6.70;2.60;;;;;;;3.98;49.81;99707.59;5096692;28;20048;-80
2022/04/22 00:09:38;;;;;;;8.20;2.28;;;;;;;3.89;49.80;99703.63;5062740;28;20039;-80
2022/04/22 00:12:04;;;;;;;3.38;2.47;;;;;;;3.89;49.92;99718.63;5114701;28;20085;-80
2022/04/22 00:14:30;;;;;;;3.72;2.53;;;;;;;3.86;50.01;99724.91;5096611;28;20039;-81
2022/04/22 00:16:56;;;;;;;2.95;2.47;;;;;;;3.76;49.92;99712.19;5096807;28;20040;-81
2022/04/22 00:19:22;;;;;;;4.32;2.70;;;;;;;3.84;50.08;99725.94;5096519;28;20135;-81
2022/04/22 00:21:48;;;;;;;7.95;2.90;;;;;;;3.82;50.01;99715.41;5062922;28;20367;-80
2022/04/22 00:24:15;;;;;;;5.18;2.70;;;;;;;3.72;50.14;99700.03;5062723;28;20040;-79
2022/04/22 00:26:42;;;;;;;5.00;2.90;;;;;;;3.82;49.94;99711.91;5062412;28;20178;-80
2022/04/22 00:29:07;;;;;;;6.40;2.95;;;;;;;3.68;50.10;99693.16;5114719;28;20426;-79
2022/04/22 00:31:34;;;;;;;3.58;3.08;;;;;;;3.78;50.04;99720.91;5096529;28;20051;-78
2022/04/22 00:34:00;;;;;;;9.45;3.58;;;;;;;3.73;50.00;99710.56;5062561;28;20040;-79
2022/04/22 00:36:26;;;;;;;4.43;3.40;;;;;;;3.69;50.05;99721.34;5096616;28;20048;-79
2022/04/22 00:38:52;;;;;;;7.75;3.83;;;;;;;3.71;49.96;99716.84;5078963;28;20413;-79
2022/04/22 00:41:18;;;;;;;6.03;4.00;;;;;;;3.65;50.32;99705.63;5095827;28;20040;-78
2022/04/22 00:43:50;;;;;;;5.22;3.97;;;;;;;3.61;50.18;99704.06;5079069;28;20045;-80
2022/04/22 00:46:17;;;;;;;8.35;4.00;;;;;;;3.63;50.04;99718.03;5114416;28;20053;-79
2022/04/22 00:48:43;;;;;;;7.40;4.55;;;;;;;3.59;50.13;99719.09;5062594;28;20088;-79
2022/04/22 00:51:11;;;;;;;9.15;4.13;;;;;;;3.60;50.21;99707.59;5113926;28;20047;-79
2022/04/22 00:53:39;;;;;;;7.25;4.05;;;;;;;3.56;50.38;99710.47;5078363;28;20043;-80
2022/04/22 00:56:07;;;;;;;8.68;4.43;;;;;;;3.60;50.00;99712.03;5079053;28;20043;-78
2022/04/22 00:58:36;;;;;;;6.95;4.18;;;;;;;3.53;50.17;99715.88;5061963;28;20512;-79
2022/04/22 01:01:02;;;;;;;6.88;4.35;;;;;;;3.55;49.64;99711.41;5095107;28;20542;-80
2022/04/22 01:03:29;;;;;;;10.52;4.25;;;;;;;3.49;50.21;99709.88;5078731;28;20520;-78
2022/04/22 01:11:27;;;;;;;12.73;4.38;;;;;;;3.40;50.21;99705.00;5113665;28;20432;-80
2022/04/22 01:13:54;;;;;;;10.20;4.53;;;;;;;3.45;50.12;99708.28;5078781;28;20039;-80
2022/04/22 01:16:20;;;;;;;9.93;4.82;;;;;;;3.49;50.02;99715.16;5078418;28;20040;-79
2022/04/22 01:18:46;;;;;;;10.60;5.18;;;;;;;3.50;50.01;99722.19;5095714;28;20048;-81
2022/04/22 01:21:11;;;;;;;12.15;5.78;;;;;;;3.51;50.00;99713.31;5078800;28;20441;-79
2022/04/22 01:23:37;;;;;;;16.33;6.10;;;;;;;3.54;50.27;99715.81;5095445;28;20093;-80
2022/04/22 01:26:04;;;;;;;9.30;5.40;;;;;;;3.50;50.24;99711.59;5095508;28;20518;-79
2022/04/22 01:28:31;;;;;;;12.95;4.90;;;;;;;3.43;50.07;99694.31;5078569;28;20066;-79
2022/04/22 01:30:59;;;;;;;14.23;5.30;;;;;;;3.57;50.03;99723.63;5078215;28;20036;-79
2022/04/22 01:33:25;;;;;;;10.73;4.97;;;;;;;3.63;50.18;99714.53;5061632;28;20127;-79
2022/04/22 01:35:51;;;;;;;11.32;4.97;;;;;;;3.58;50.03;99706.81;5113297;28;20050;-80
2022/04/22 01:38:17;;;;;;;12.20;4.70;;;;;;;3.58;50.26;99712.13;5113424;28;20036;-79
2022/04/22 01:40:43;;;;;;;12.05;4.50;;;;;;;3.59;50.20;99710.31;5094978;28;20406;-80
2022/04/22 01:43:09;;;;;;;10.27;4.18;;;;;;;3.64;50.20;99717.09;5061150;28;20039;-80
2022/04/22 01:45:35;;;;;;;13.07;4.72;;;;;;;3.65;50.06;99718.84;5095192;28;20524;-79
2022/04/22 01:48:01;;;;;;;8.10;4.80;;;;;;;3.67;50.05;99728.47;5061628;28;20049;-79
2022/04/22 01:50:27;;;;;;;14.88;5.22;;;;;;;3.64;49.77;99719.75;5078939;28;20490;-79
2022/04/22 01:52:53;;;;;;;14.90;5.18;;;;;;;3.69;49.95;99726.63;5078332;28;20050;-79
2022/04/22 01:55:19;;;;;;;14.25;5.13;;;;;;;3.75;49.64;99726.34;5077928;28;20039;-80
2022/04/22 01:57:46;;;;;;;10.63;5.03;;;;;;;3.77;49.73;99727.13;5078003;28;20077;-79
2022/04/22 02:00:12;;;;;;;11.23;5.25;;;;;;;3.78;49.62;99734.13;5094797;28;20139;-79
2022/04/22 02:02:38;;;;;;;15.25;5.28;;;;;;;3.81;49.70;99734.00;5113283;28;20055;-82
2022/04/22 02:05:05;;;;;;;10.57;5.10;;;;;;;3.85;49.57;99722.34;5079584;28;20039;-81
2022/04/22 02:07:32;;;;;;;12.77;4.70;;;;;;;3.91;49.36;99732.63;5082279;28;20454;-79
2022/04/22 02:09:58;;;;;;;9.52;5.05;;;;;;;3.90;49.39;99730.91;5081952;28;20097;-80
2022/04/22 02:12:24;;;;;;;11.30;4.60;;;;;;;3.90;49.13;99730.91;5081725;28;20093;-80
2022/04/22 02:14:51;;;;;;;15.75;4.53;;;;;;;3.94;49.39;99731.63;5117114;28;20043;-80
2022/04/22 02:17:18;;;;;;;17.48;4.13;;;;;;;3.98;48.97;99717.34;5099706;28;20089;-81
2022/04/22 02:19:45;;;;;;;14.00;4.45;;;;;;;4.06;48.67;99737.22;5082800;28;20047;-81
2022/04/22 02:22:11;;;;;;;11.55;4.18;;;;;;;4.21;48.61;99735.63;5081632;28;20055;-80
2022/04/22 02:24:36;;;;;;;7.57;3.65;;;;;;;4.26;48.40;99730.97;5065116;28;20032;-81
2022/04/22 02:29:47;;;;;;;24.67;4.00;;;;;;;4.37;48.16;99730.47;5098252;28;20039;-79
2022/04/22 02:32:13;;;;;;;10.25;3.22;;;;;;;4.46;48.00;99724.72;5097892;28;20039;-81
2022/04/22 02:34:39;;;;;;;14.20;3.13;;;;;;;4.57;47.90;99743.56;5081201;28;20039;-81
2022/04/22 02:37:05;;;;;;;7.93;2.95;;;;;;;4.52;47.44;99740.31;5116187;28;20553;-82
2022/04/22 02:39:31;;;;;;;13.65;3.33;;;;;;;4.53;47.59;99742.00;5080828;28;20486;-80
2022/04/22 02:47:25;;;;;;;11.65;3.30;;;;;;;4.77;46.90;99728.47;5081167;28;20490;-80
2022/04/22 02:49:51;;;;;;;11.10;3.10;;;;;;;4.85;46.37;99726.31;5116136;28;20059;-81
2022/04/22 02:52:17;;;;;;;10.43;3.53;;;;;;;4.90;46.35;99734.91;5081127;28;20071;-81
2022/04/22 02:54:43;;;;;;;9.93;3.38;;;;;;;5.02;46.10;99733.41;5097640;28;20047;-81
2022/04/22 02:57:09;;;;;;;16.02;4.00;;;;;;;5.13;46.00;99738.16;5064349;28;20062;-82
2022/04/22 02:59:40;;;;;;;17.15;3.65;;;;;;;5.20;45.65;99731.63;5080054;28;20039;-80
2022/04/22 03:02:08;;;;;;;13.88;4.25;;;;;;;5.17;46.08;99721.16;5065071;28;20083;-81
2022/04/22 03:04:34;;;;;;;22.33;4.47;;;;;;;5.29;46.03;99716.06;5099789;28;20039;-80
2022/04/22 03:07:01;;;;;;;14.10;3.88;;;;;;;5.54;48.41;99723.59;5099832;28;20050;-91
2022/04/22 03:09:27;;;;;;;11.90;3.80;;;;;;;5.64;45.77;99720.44;5064766;28;20047;-83
2022/04/22 03:11:52;;;;;;;19.02;4.57;;;;;;;5.81;45.37;99723.91;5080111;28;20039;-79
2022/04/22 03:14:19;;;;;;;20.17;4.55;;;;;;;5.90;44.97;99733.16;5097741;28;20051;-80
2022/04/22 03:16:45;;;;;;;20.98;4.88;;;;;;;5.95;45.20;99736.47;5097697;27;20386;-78
2022/04/22 03:19:11;;;;;;;38.58;6.68;;;;;;;6.04;45.12;99729.78;5100451;27;20485;-77
2022/04/22 03:21:37;;;;;;;34.90;6.45;;;;;;;6.14;45.22;99731.00;5083901;27;20039;-79
2022/04/22 03:24:03;;;;;;;36.60;6.72;;;;;;;6.14;45.09;99725.69;5116704;27;20047;-78
2022/04/22 03:26:29;;;;;;;27.58;6.55;;;;;;;6.40;45.05;99739.31;5135112;27;20157;-82
2022/04/22 03:28:58;;;;;;;39.72;7.80;;;;;;;6.49;45.05;99729.00;5100265;27;20039;-79
2022/04/22 03:31:24;;;;;;;28.55;6.70;;;;;;;6.67;45.43;99724.44;5117419;27;20504;-80
2022/04/22 03:33:50;;;;;;;40.92;7.10;;;;;;;6.82;44.31;99730.66;5083282;27;20051;-79
2022/04/22 03:36:16;;;;;;;41.67;8.35;;;;;;;6.83;44.60;99729.72;5099898;27;20039;-82
2022/04/22 03:38:43;;;;;;;31.67;7.50;;;;;;;7.01;44.36;99733.94;5101020;27;20443;-79
2022/04/22 03:41:10;;;;;;;38.88;8.75;;;;;;;7.02;43.88;99725.00;5088867;27;20035;-81
2022/04/22 03:43:37;;;;;;;36.67;8.25;;;;;;;6.98;43.31;99739.44;5139528;27;20078;-80
2022/04/22 03:46:03;;;;;;;43.90;7.88;;;;;;;6.94;43.84;99737.91;5118352;27;20051;-81
2022/04/22 03:48:29;;;;;;;43.40;7.25;;;;;;;7.06;44.25;99737.19;5084132;27;20101;-81
2022/04/22 03:50:55;;;;;;;23.52;8.05;;;;;;;7.23;43.81;99730.03;5100886;27;20042;-80
2022/04/22 03:53:24;;;;;;;43.65;7.90;;;;;;;7.33;43.43;99722.31;5117241;27;20533;-80
2022/04/22 03:55:50;;;;;;;36.40;6.07;;;;;;;7.40;43.14;99735.16;5116618;27;20046;-80
2022/04/22 03:58:17;;;;;;;79.00;9.23;;;;;;;7.49;43.52;99737.28;5115152;27;20043;-79
2022/04/22 04:00:50;;;;;;;29.85;6.20;;;;;;;7.64;43.06;99738.13;5106983;28;20122;-82
2022/04/22 04:03:21;;;;;;;25.65;4.72;;;;;;;7.79;43.32;99733.69;5099654;27;20100;-81
2022/04/22 04:05:50;;;;;;;13.98;3.65;;;;;;;8.03;43.25;99740.09;5103651;28;20046;-81
2022/04/22 04:08:18;;;;;;;6.78;3.63;;;;;;;8.23;42.83;99735.31;5079084;28;20130;-79
2022/04/22 04:16:13;;;;;;;9.65;3.10;;;;;;;8.68;42.13;99725.31;5096291;28;20051;-80
2022/04/22 04:18:39;;;;;;;14.55;3.58;;;;;;;8.85;41.99;99730.41;5095562;28;20194;-79
2022/04/22 04:23:52;;;;;;;11.30;3.38;;;;;;;9.34;40.87;99724.41;5113301;28;20139;-80
2022/04/22 04:26:21;;;;;;;19.00;6.80;;;;;;;9.32;40.62;99736.97;5078746;28;20406;-80
2022/04/22 04:28:48;;;;;;;8.27;4.18;;;;;;;9.34;40.78;99723.56;5095774;28;20050;-79
2022/04/22 04:31:15;;;;;;;25.52;4.85;;;;;;;9.35;40.41;99723.44;5113786;28;20047;-78
2022/04/22 04:33:42;;;;;;;32.58;6.63;;;;;;;9.24;40.43;99731.31;5095647;28;20039;-80
2022/04/22 04:36:12;;;;;;;38.53;6.18;;;;;;;9.22;40.53;99735.91;5077950;28;20078;-79
2022/04/22 04:38:38;;;;;;;;;;;;;;;9.34;41.06;99740.41;5094836;28;20035;-78
2022/04/22 04:41:07;;;;;;;25.65;5.00;;;;;;;9.57;40.76;99735.28;5081147;27;20301;-80
2022/04/22 04:43:34;;;;;;;50.15;7.00;;;;;;;9.43;40.05;99728.22;5093012;28;20040;-80
2022/04/22 04:46:01;;;;;;;31.23;5.80;;;;;;;9.20;40.17;99727.16;5113357;28;20126;-76
2022/04/22 04:48:27;;;;;;;38.50;5.80;;;;;;;8.95;40.55;99728.81;5113594;28;20471;-80
2022/04/22 04:50:55;;;;;;;23.35;6.38;;;;;;;8.84;41.08;99730.47;5077954;28;20387;-78
2022/04/22 04:53:23;;;;;;;25.88;5.50;;;;;;;8.71;41.08;99709.97;5113182;28;20043;-79
2022/04/22 04:55:50;;;;;;;20.33;6.57;;;;;;;8.67;41.54;99699.63;5111956;28;20043;-82
2022/04/22 04:58:17;;;;;;;33.90;6.95;;;;;;;8.98;41.15;99731.25;5061863;28;20325;-81
2022/04/22 05:00:45;;;;;;;39.08;6.93;;;;;;;9.13;41.25;99726.72;5080489;28;20051;-81
2022/04/22 05:03:11;;;;;;;24.23;6.00;;;;;;;9.17;40.98;99732.69;5113004;28;20248;-80
2022/04/22 05:05:38;;;;;;;22.13;4.90;;;;;;;9.08;41.01;99728.00;5061118;28;20050;-80
2022/04/22 05:08:05;;;;;;;27.08;6.60;;;;;;;9.13;41.24;99737.38;5078239;28;20554;-80
2022/04/22 05:10:32;;;;;;;15.82;4.43;;;;;;;9.28;41.05;99735.47;5112761;28;20137;-79
2022/04/22 05:13:03;;;;;;;11.65;4.03;;;;;;;9.44;41.05;99729.94;5111392;28;20515;-79
2022/04/22 05:15:33;;;;;;;11.40;4.45;;;;;;;9.69;41.14;99729.94;5094951;28;20099;-79
2022/04/22 05:18:02;;;;;;;13.45;5.15;;;;;;;9.87;40.19;99735.81;5077979;28;20035;-82
2022/04/22 05:20:29;;;;;;;13.82;4.80;;;;;;;10.16;40.07;99732.88;5113305;28;20082;-79
2022/04/22 05:22:55;;;;;;;24.83;5.00;;;;;;;10.37;40.11;99731.34;5077899;28;20043;-79
2022/04/22 05:25:22;;;;;;;29.98;4.75;;;;;;;10.75;39.96;99735.69;5077914;28;20473;-79
2022/04/22 05:27:48;;;;;;;19.77;4.55;;;;;;;10.90;39.24;99737.19;5077694;28;20039;-80
2022/04/22 05:33:01;;;;;;;20.05;6.22;;;;;;;10.99;39.07;99729.47;5078760;28;20141;-84
2022/04/22 05:35:27;;;;;;;24.40;6.30;;;;;;;11.02;38.60;99732.78;5094996;28;20050;-80
2022/04/22 05:37:56;;;;;;;10.45;3.60;;;;;;;10.67;38.17;99730.06;5113344;28;20108;-80
2022/04/22 05:40:24;;;;;;;18.20;4.22;;;;;;;10.60;38.88;99728.78;5080130;28;20036;-79
2022/04/22 05:42:52;;;;;;;16.33;4.05;;;;;;;10.72;38.61;99727.91;5117154;28;20506;-81
2022/04/22 05:45:19;;;;;;;19.88;4.90;;;;;;;10.68;39.01;99729.97;5116033;28;20035;-80
2022/04/22 05:47:46;;;;;;;19.27;4.72;;;;;;;10.61;39.35;99733.19;5099052;28;20043;-80
2022/04/22 05:50:14;;;;;;;24.45;5.03;;;;;;;10.97;39.15;99724.22;5082557;28;20048;-79
2022/04/22 05:52:41;;;;;;;13.95;4.40;;;;;;;11.31;38.68;99727.84;5098993;28;20044;-81
2022/04/22 05:55:12;;;;;;;27.60;4.30;;;;;;;11.74;38.94;99724.53;5082374;28;20036;-81
2022/04/22 05:57:38;;;;;;;24.25;3.92;;;;;;;12.04;38.21;99720.44;5081926;28;20165;-80
2022/04/22 06:00:08;;;;;;;26.10;5.57;;;;;;;12.21;37.66;99717.22;5098402;28;20039;-79
2022/04/22 06:02:41;;;;;;;12.75;3.50;;;;;;;12.49;36.70;99715.00;5116734;28;20064;-81
2022/04/22 06:05:18;;;;;;;15.32;3.88;;;;;;;12.75;35.49;99723.53;5115021;28;20046;-81
2022/04/22 06:07:45;;;;;;;11.52;3.72;;;;;;;12.78;35.50;99721.47;5098061;28;20168;-81
2022/04/22 06:10:31;;;;;;;10.52;3.10;;;;;;;12.97;35.44;99719.94;5080888;28;20090;-81
2022/04/22 06:12:58;;;;;;;10.05;3.40;;;;;;;13.16;35.43;99727.28;5081047;28;20050;-78
2022/04/22 06:15:25;;;;;;;9.70;3.05;;;;;;;13.43;35.29;99721.44;5097725;28;20040;-79
2022/04/22 06:17:51;;;;;;;6.63;2.67;;;;;;;13.62;34.63;99716.19;5097473;28;20131;-80
2022/04/22 06:20:18;;;;;;;9.05;3.00;;;;;;;13.77;34.93;99717.53;5114404;28;20494;-80
2022/04/22 06:22:44;;;;;;;14.63;3.10;;;;;;;14.05;34.13;99717.78;5063917;28;20035;-81
2022/04/22 06:25:10;;;;;;;11.15;3.17;;;;;;;13.74;32.90;99719.63;5081513;28;20044;-80
2022/04/22 06:27:41;;;;;;;29.70;3.00;;;;;;;13.66;33.19;99712.25;5080760;28;20036;-81
2022/04/22 06:30:13;;;;;;;6.68;2.83;;;;;;;13.93;33.77;99708.97;5097782;28;20047;-81
2022/04/22 06:32:41;;;;;;;5.88;3.03;;;;;;;14.26;33.46;99715.88;5097546;28;20048;-81
2022/04/22 06:35:08;;;;;;;11.10;2.88;;;;;;;14.38;32.77;99718.47;5063471;28;20047;-80
2022/04/22 06:37:45;;;;;;;6.30;3.25;;;;;;;14.52;32.53;99702.81;5080334;28;20501;-80
2022/04/22 06:45:46;;;;;;;14.43;4.25;;;;;;;14.32;32.61;99685.72;5080960;28;20059;-80
2022/04/22 06:48:20;;;;;;;7.88;3.65;;;;;;;14.62;32.72;99705.50;5080404;28;20134;-81
2022/04/22 06:50:49;;;;;;;8.20;3.80;;;;;;;14.64;31.72;99703.53;5080779;28;20050;-81
2022/04/22 06:53:16;;;;;;;8.80;4.00;;;;;;;14.66;32.27;99696.16;5064062;28;20035;-81
2022/04/22 06:55:44;;;;;;;12.93;3.85;;;;;;;14.95;31.85;99701.56;5079987;28;20470;-80
2022/04/22 06:58:17;;;;;;;9.48;3.83;;;;;;;15.18;32.06;99703.94;5080677;28;20051;-80
2022/04/22 07:00:45;;;;;;;13.30;3.95;;;;;;;15.17;31.25;99705.81;5081039;28;20047;-80
2022/04/22 07:03:12;;;;;;;12.25;3.45;;;;;;;15.08;30.71;99695.88;5080122;28;20051;-78
2022/04/22 07:05:40;;;;;;;10.02;3.47;;;;;;;14.82;30.98;99684.84;5064144;28;20560;-80
2022/04/22 07:08:07;;;;;;;11.13;3.58;;;;;;;14.85;31.01;99689.94;5095643;28;20494;-80
2022/04/22 07:10:34;;;;;;;7.78;3.60;;;;;;;15.11;31.36;99684.81;5079969;28;20502;-79
2022/04/22 07:13:00;;;;;;;7.65;2.67;;;;;;;15.35;31.49;99680.84;5063618;28;20044;-79
2022/04/22 07:15:27;;;;;;;14.73;4.13;;;;;;;15.55;30.69;99667.16;5080233;28;20054;-79
2022/04/22 07:17:53;;;;;;;12.15;4.30;;;;;;;15.72;30.79;99676.38;5063597;28;20465;-78
2022/04/22 07:20:20;;;;;;;10.52;4.25;;;;;;;15.56;30.43;99668.00;5115222;28;20058;-78
2022/04/22 07:22:46;;;;;;;15.27;3.80;;;;;;;15.47;30.27;99658.97;5063006;28;20108;-79
2022/04/22 07:25:15;;;;;;;13.20;4.43;;;;;;;15.17;30.91;99654.63;5097246;28;20039;-78
2022/04/22 07:27:43;;;;;;;19.02;4.28;;;;;;;14.91;30.84;99658.91;5080210;28;20055;-82
2022/04/22 07:30:16;;;;;;;10.02;3.97;;;;;;;14.84;31.15;99655.94;5064505;28;20451;-79
2022/04/22 07:32:45;;;;;;;12.73;3.97;;;;;;;14.84;31.15;99649.72;5079216;28;20039;-81
2022/04/22 07:35:13;;;;;;;21.45;4.50;;;;;;;14.69;31.16;99647.44;5079896;28;20048;-79
2022/04/22 07:37:40;;;;;;;7.53;3.28;;;;;;;14.85;37.36;99646.03;5114305;28;20043;-83
2022/04/22 07:40:07;;;;;;;11.15;3.67;;;;;;;15.47;31.99;99647.34;5063032;28;20032;-75
2022/04/22 07:42:34;;;;;;;7.43;3.83;;;;;;;15.80;31.08;99640.59;5096052;28;20058;-77
2022/04/22 07:47:48;;;;;;;14.52;4.05;;;;;;;16.01;30.26;99629.53;5096167;28;20051;-77
2022/04/22 07:50:15;;;;;;;11.95;3.92;;;;;;;16.01;30.37;99629.53;5095961;28;20044;-74
2022/04/22 07:52:45;;;;;;;10.73;3.67;;;;;;;16.32;30.86;99629.19;5096082;28;20055;-76
2022/04/22 07:55:13;;;;;;;16.25;3.80;;;;;;;16.59;30.73;99621.06;5096277;28;20052;-74
2022/04/22 07:57:40;;;;;;;13.82;4.53;;;;;;;16.63;29.22;99625.13;5079180;28;20096;-75
2022/04/22 08:00:10;;;;;;;22.85;4.47;;;;;;;16.32;29.38;99607.63;5079096;28;20047;-75
2022/04/22 08:02:40;;;;;;;17.85;4.22;;;;;;;16.02;30.09;99625.84;5095206;28;20387;-79
2022/04/22 08:05:09;;;;;;;14.43;3.85;;;;;;;15.93;30.32;99621.34;5096231;28;20055;-77
2022/04/22 08:07:35;;;;;;;15.73;3.83;;;;;;;15.53;30.40;99625.19;5078737;28;20043;-78
2022/04/22 08:10:01;;;;;;;18.80;4.28;;;;;;;15.75;31.03;99607.81;5096242;28;20385;-77
2022/04/22 08:12:29;;;;;;;12.25;4.10;;;;;;;16.15;30.25;99610.16;5062599;28;20531;-76
2022/04/22 08:14:54;;;;;;;13.13;3.33;;;;;;;16.08;29.37;99613.59;5078267;28;20047;-75
2022/04/22 08:17:21;;;;;;;12.52;3.53;;;;;;;15.68;30.20;99618.38;5060772;28;20156;-78
2022/04/22 08:19:47;;;;;;;16.95;3.92;;;;;;;15.19;30.92;99612.25;5094663;28;20486;-78
2022/04/22 08:22:13;;;;;;;17.17;5.30;;;;;;;15.45;30.84;99608.91;5112251;28;20044;-78
2022/04/22 08:24:39;;;;;;;13.05;3.75;;;;;;;15.30;30.40;99603.16;5094612;28;20044;-79
2022/04/22 08:27:06;;;;;;;19.38;4.07;;;;;;;15.29;30.69;99591.53;5094429;28;20363;-79
2022/04/22 08:29:33;;;;;;;16.40;4.65;;;;;;;15.59;30.88;99605.75;5096982;27;20066;-80
2022/04/22 08:31:59;;;;;;;11.65;3.80;;;;;;;16.18;30.79;99609.84;5094703;28;20036;-80
2022/04/22 08:34:25;;;;;;;16.45;3.90;;;;;;;16.73;29.60;99593.53;5094385;28;20054;-80
2022/04/22 08:36:51;;;;;;;16.55;4.32;;;;;;;16.95;28.90;99597.59;5112159;28;20052;-80
2022/04/22 08:39:17;;;;;;;31.33;4.00;;;;;;;16.58;29.29;99597.75;5082428;27;20130;-80
2022/04/22 08:41:43;;;;;;;13.55;3.67;;;;;;;16.85;29.81;99594.16;5115168;27;20489;-78
2022/04/22 08:44:13;;;;;;;16.65;3.63;;;;;;;17.30;29.02;99598.53;5133591;27;20047;-78
2022/04/22 08:52:11;;;;;;;10.98;3.80;;;;;;;17.63;28.40;99602.22;5098018;27;20035;-79
2022/04/22 08:54:41;;;;;;;21.87;4.87;;;;;;;17.86;28.23;99594.41;5097835;27;20505;-79
2022/04/22 08:57:07;;;;;;;12.15;3.50;;;;;;;17.95;28.17;99601.56;5115576;27;20078;-79
2022/04/22 08:59:33;;;;;;;10.57;3.90;;;;;;;18.10;27.09;99596.34;5098636;27;20137;-78
2022/04/22 09:01:59;;;;;;;12.70;3.88;;;;;;;17.41;27.70;99592.84;5081730;27;20141;-80
2022/04/22 09:04:26;;;;;;;10.20;3.50;;;;;;;17.71;28.25;99591.47;5098805;27;20471;-80
2022/04/22 09:06:53;;;;;;;13.20;4.07;;;;;;;18.05;27.18;99595.97;5115065;27;20092;-79
2022/04/22 09:09:19;;;;;;;12.63;3.60;;;;;;;18.03;27.10;99589.06;5115331;27;20066;-81
2022/04/22 09:11:45;;;;;;;10.95;3.95;;;;;;;18.28;27.42;99592.66;5125457;27;20521;-80
2022/04/22 09:14:23;;;;;;;12.88;3.47;;;;;;;18.52;27.21;99590.00;5077599;28;20052;-79
2022/04/22 09:16:50;;;;;;;16.10;3.50;;;;;;;18.83;26.55;99581.25;5062377;28;20040;-79
2022/04/22 09:19:18;;;;;;;9.43;3.08;;;;;;;18.16;26.28;99595.69;5078886;28;20110;-80
2022/04/22 09:21:57;;;;;;;17.35;3.80;;;;;;;18.07;26.65;99593.97;5095446;28;20036;-78
2022/04/22 09:24:24;;;;;;;12.02;3.40;;;;;;;17.79;27.34;99584.41;5078710;28;20039;-80
2022/04/22 09:27:08;;;;;;;9.73;3.60;;;;;;;18.52;27.74;99586.47;5078325;28;20043;-80
2022/04/22 09:29:41;;;;;;;13.32;4.40;;;;;;;19.08;26.19;99591.03;5113197;28;20039;-79
2022/04/22 09:32:10;;;;;;;14.20;4.05;;;;;;;19.41;26.92;99582.84;5112990;28;20047;-79
2022/04/22 09:34:39;;;;;;;12.95;4.38;;;;;;;19.82;25.69;99580.00;5078296;28;20041;-79
2022/04/22 09:42:58;;;;;;;18.55;3.92;;;;;;;18.74;25.48;99568.72;5112990;28;20036;-78
2022/04/22 09:45:44;;;;;;;14.77;4.25;;;;;;;19.23;26.72;99579.50;5115114;28;20130;-80
2022/04/22 09:48:17;;;;;;;19.13;3.85;;;;;;;19.87;24.81;99578.47;5081237;28;20523;-80
2022/04/22 09:50:48;;;;;;;11.43;3.38;;;;;;;20.04;25.05;99571.06;5115414;28;20039;-80
2022/04/22 09:53:14;;;;;;;12.77;3.80;;;;;;;20.69;25.18;99566.28;5133927;28;20046;-79
2022/04/22 09:55:55;;;;;;;15.18;4.35;;;;;;;21.24;24.04;99568.63;5114944;28;20513;-79
2022/04/22 09:58:27;;;;;;;11.50;3.13;;;;;;;21.71;23.30;99561.16;5097429;28;20073;-80
2022/04/22 10:01:02;;;;;;;20.45;3.92;;;;;;;21.95;22.74;99560.81;5078051;28;20113;-81
2022/04/22 10:03:30;;;;;;;10.63;3.10;;;;;;;21.95;22.35;99549.94;5094521;28;20135;-80
2022/04/22 10:05:56;;;;;;;10.57;3.22;;;;;;;21.85;22.03;99546.66;5112263;28;20452;-80
2022/04/22 10:08:23;;;;;;;8.27;2.88;;;;;;;22.18;21.86;99548.97;5097908;28;20130;-81
2022/04/22 10:10:54;;;;;;;6.10;2.80;;;;;;;22.28;21.70;99541.34;5072430;28;20043;-80
2022/04/22 10:13:25;;;;;;;15.57;5.18;;;;;;;22.57;21.88;99544.97;5077860;28;20048;-80
2022/04/22 10:15:51;;;;;;;13.90;3.00;;;;;;;21.07;21.80;99548.94;5094651;28;20130;-79
2022/04/22 10:18:20;;;;;;;13.10;3.53;;;;;;;21.15;22.25;99539.00;5077760;28;20355;-81
2022/04/22 10:20:47;;;;;;;5.00;2.80;;;;;;;21.13;22.12;99532.91;5094487;28;20046;-78
2022/04/22 10:23:14;;;;;;;9.55;2.83;;;;;;;21.46;22.36;99520.66;5112801;28;20039;-80
2022/04/22 10:25:40;;;;;;;15.40;3.30;;;;;;;22.09;22.35;99525.59;5100682;28;20056;-79
2022/04/22 10:28:09;;;;;;;15.40;3.58;;;;;;;22.74;21.74;99516.41;5107254;28;20493;-79
2022/04/22 10:30:37;;;;;;;14.75;3.78;;;;;;;23.43;21.40;99523.81;5116398;28;20032;-79
2022/04/22 10:33:03;;;;;;;13.37;3.77;;;;;;;23.80;20.92;99514.38;5098687;28;20501;-79
2022/04/22 10:35:29;;;;;;;10.30;4.03;;;;;;;24.20;20.14;99514.50;5116472;28;20169;-79
2022/04/22 10:37:58;;;;;;;8.30;3.05;;;;;;;24.36;19.71;99503.16;5097784;28;20035;-79
2022/04/22 10:40:26;;;;;;;9.40;3.40;;;;;;;24.22;19.64;99512.38;5080836;28;20134;-79
2022/04/22 10:42:55;;;;;;;8.48;3.60;;;;;;;23.94;19.13;99507.06;5098131;28;20044;-78
2022/04/22 10:48:26;;;;;;;9.33;3.73;;;;;;;23.24;19.92;99498.13;5117913;28;20039;-79
2022/04/22 10:51:02;;;;;;;12.80;3.15;;;;;;;23.79;19.88;99496.31;5082745;28;20277;-79
2022/04/22 10:53:33;;;;;;;12.95;3.38;;;;;;;24.21;18.97;99494.31;5097724;28;20051;-79
2022/04/22 10:56:24;;;;;;;8.93;3.00;;;;;;;24.79;19.45;99491.88;5087310;27;20048;-78
2022/04/22 10:59:12;;;;;;;16.60;3.88;;;;;;;25.28;18.49;99487.84;5097791;28;20456;-80
2022/04/22 11:01:42;;;;;;;9.90;3.20;;;;;;;25.26;17.84;99484.47;5115148;28;20120;-80
2022/04/22 11:04:33;;;;;;;7.72;2.92;;;;;;;25.04;19.16;99483.00;5081109;28;20036;-79
2022/04/22 11:06:59;;;;;;;11.40;2.97;;;;;;;24.77;18.07;99480.31;5114865;28;20039;-78
2022/04/22 11:09:27;;;;;;;11.30;3.00;;;;;;;25.00;17.76;99479.00;5080642;28;20556;-79
2022/04/22 11:11:58;;;;;;;6.18;3.28;;;;;;;25.35;18.33;99476.84;5097268;28;20051;-78
2022/04/22 11:14:26;;;;;;;7.20;3.03;;;;;;;25.95;17.47;99471.16;5080970;28;20502;-78
2022/04/22 11:16:54;;;;;;;6.45;2.60;;;;;;;26.19;16.98;99472.28;5097037;28;20041;-78
2022/04/22 11:19:20;;;;;;;11.23;2.88;;;;;;;25.12;16.96;99469.13;5079961;28;20048;-78
2022/04/22 11:21:50;;;;;;;5.38;2.63;;;;;;;24.35;17.70;99465.16;5114950;28;20043;-79
2022/04/22 11:24:25;;;;;;;19.58;3.05;;;;;;;24.66;17.85;99462.66;5115296;28;20071;-78
2022/04/22 11:26:52;;;;;;;7.90;3.00;;;;;;;24.76;17.22;99455.94;5097039;28;20073;-79
2022/04/22 11:29:19;;;;;;;7.50;3.17;;;;;;;25.19;17.46;99467.22;5080333;28;20067;-77
2022/04/22 11:32:05;;;;;;;19.27;3.42;;;;;;;25.71;16.70;99462.59;5102557;27;20047;-78
2022/04/22 11:34:48;;;;;;;8.23;3.03;;;;;;;24.38;17.35;99457.38;5117609;27;20055;-79
2022/04/22 11:37:22;;;;;;;20.15;3.28;;;;;;;24.05;17.95;99462.78;5116420;27;20393;-79
2022/04/22 11:39:51;;;;;;;13.27;3.17;;;;;;;24.61;17.62;99461.59;5100632;27;20118;-80
2022/04/22 11:42:20;;;;;;;10.68;2.88;;;;;;;24.99;17.08;99459.03;5083695;27;20512;-79
2022/04/22 11:45:09;;;;;;;15.15;4.93;;;;;;;25.61;17.22;99457.63;5117599;27;20035;-80
2022/04/22 11:47:36;;;;;;;8.13;3.00;;;;;;;26.51;17.09;99451.19;5082822;27;20037;-79
2022/04/22 11:50:02;;;;;;;8.20;2.72;;;;;;;26.67;16.05;99450.63;5099087;27;20133;-78
2022/04/22 11:52:31;;;;;;;8.23;3.00;;;;;;;27.12;15.87;99450.44;5134685;27;20457;-75
2022/04/22 11:55:02;;;;;;;10.02;2.90;;;;;;;26.73;15.88;99446.13;5136584;27;20469;-78
2022/04/22 11:57:48;;;;;;;9.60;2.83;;;;;;;27.25;15.96;99447.53;5116767;27;20037;-79
2022/04/22 12:05:47;;;;;;;19.42;4.13;;;;;;;28.01;14.84;99445.28;5096478;28;20044;-80
2022/04/22 12:08:15;;;;;;;11.43;3.10;;;;;;;28.18;15.31;99451.81;5096342;28;20050;-76
2022/04/22 12:10:48;;;;;;;8.38;2.60;;;;;;;28.23;15.17;99446.44;5114272;28;20035;-80
2022/04/22 12:13:15;;;;;;;10.45;2.15;;;;;;;28.65;14.95;99435.41;5096412;28;20063;-79
2022/04/22 12:15:46;;;;;;;8.68;2.28;;;;;;;28.76;14.66;99448.31;5078902;28;20490;-80
2022/04/22 12:18:32;;;;;;;2.72;1.80;;;;;;;27.95;14.21;99447.09;5079400;28;20043;-76
2022/04/22 12:20:59;;;;;;;6.70;2.03;;;;;;;26.82;14.69;99453.88;5062388;28;20047;-78
2022/04/22 12:23:36;;;;;;;19.77;3.70;;;;;;;26.96;15.87;99449.06;5062728;28;20141;-75
2022/04/22 12:26:02;;;;;;;5.50;2.17;;;;;;;27.99;14.82;99433.72;5062155;28;20494;-76
2022/04/22 12:28:28;;;;;;;5.57;2.85;;;;;;;28.77;14.42;99436.28;5084387;27;20063;-77
2022/04/22 12:30:54;;;;;;;8.60;2.60;;;;;;;29.27;13.66;99427.50;5070234;27;20059;-76